createdAt,value
2017-08-27T00:00:08.081Z,17.57
2017-08-27T00:02:36.162Z,16.80
2017-08-27T00:05:04.263Z,21.13
2017-08-27T00:07:32.354Z,18.70
2017-08-27T00:10:00.452Z,18.33
2017-08-27T00:12:29.459Z,22.50
2017-08-27T00:14:57.555Z,25.97
2017-08-27T00:17:25.731Z,18.60
2017-08-27T00:19:53.849Z,19.47
2017-08-27T00:22:21.970Z,17.53
2017-08-27T00:24:50.070Z,24.67
2017-08-27T00:27:18.419Z,18.23
2017-08-27T00:29:50.154Z,22.30
2017-08-27T00:32:18.267Z,17.10
2017-08-27T00:34:46.347Z,21.67
2017-08-27T00:37:14.500Z,17.00
2017-08-27T00:39:42.631Z,21.00
2017-08-27T00:42:10.719Z,20.27
2017-08-27T00:44:38.812Z,23.17
2017-08-27T00:47:06.902Z,19.20
2017-08-27T00:49:34.999Z,23.40
2017-08-27T00:52:03.111Z,25.77
2017-08-27T00:54:31.194Z,21.23
2017-08-27T00:56:59.328Z,28.90
2017-08-27T00:59:27.415Z,20.67
2017-08-27T01:01:55.515Z,18.83
2017-08-27T01:04:23.631Z,20.87
2017-08-27T01:06:52.648Z,23.53
2017-08-27T01:09:21.669Z,20.27
2017-08-27T01:11:50.027Z,23.57
2017-08-27T01:14:18.110Z,29.60
2017-08-27T01:16:46.224Z,20.07
2017-08-27T01:19:14.311Z,23.97
2017-08-27T01:21:42.423Z,20.53
2017-08-27T01:24:10.504Z,26.43
2017-08-27T01:26:38.596Z,20.67
2017-08-27T01:29:06.683Z,26.83
2017-08-27T01:31:34.793Z,22.87
2017-08-27T01:34:02.884Z,21.23
2017-08-27T01:36:31.896Z,26.77
2017-08-27T01:39:00.929Z,23.50
2017-08-27T01:41:29.256Z,24.20
2017-08-27T01:43:58.259Z,26.83
2017-08-27T01:46:26.338Z,31.13
2017-08-27T01:48:54.419Z,24.73
2017-08-27T01:51:22.527Z,26.47
2017-08-27T01:53:50.638Z,27.40
2017-08-27T01:56:20.640Z,26.17
2017-08-27T01:58:48.731Z,25.87
2017-08-27T02:01:16.866Z,23.53
2017-08-27T02:03:45.895Z,24.57
2017-08-27T02:06:14.879Z,25.40
2017-08-27T02:08:42.989Z,31.20
2017-08-27T02:11:11.120Z,35.33
2017-08-27T02:13:40.172Z,28.17
2017-08-27T02:16:09.026Z,37.03
2017-08-27T02:18:37.859Z,27.07
2017-08-27T02:21:07.875Z,22.60
2017-08-27T02:23:37.884Z,25.87
2017-08-27T02:26:05.979Z,28.93
2017-08-27T02:28:34.992Z,26.73
2017-08-27T02:31:03.122Z,29.70
2017-08-27T02:33:31.227Z,27.10
2017-08-27T02:35:59.311Z,30.17
2017-08-27T02:38:27.411Z,25.70
2017-08-27T02:40:55.531Z,23.97
2017-08-27T02:43:23.628Z,29.70
2017-08-27T02:45:51.748Z,26.30
2017-08-27T02:48:19.855Z,24.90
2017-08-27T02:50:47.959Z,33.10
2017-08-27T02:53:16.074Z,33.40
2017-08-27T02:55:45.071Z,31.10
2017-08-27T02:58:13.182Z,28.63
2017-08-27T03:00:41.267Z,37.23
2017-08-27T03:03:09.378Z,27.17
2017-08-27T03:05:37.479Z,33.90
2017-08-27T03:08:05.562Z,30.60
2017-08-27T03:10:33.659Z,28.10
2017-08-27T03:13:01.759Z,29.47
2017-08-27T03:15:29.852Z,33.33
2017-08-27T03:17:57.952Z,35.03
2017-08-27T03:20:26.034Z,34.23
2017-08-27T03:22:54.143Z,34.97
2017-08-27T03:25:22.239Z,37.63
2017-08-27T03:27:50.343Z,31.67
2017-08-27T03:30:18.436Z,35.33
2017-08-27T03:32:47.422Z,37.60
2017-08-27T03:35:16.450Z,31.43
2017-08-27T03:37:44.539Z,36.20
2017-08-27T03:40:12.645Z,36.83
2017-08-27T03:42:40.731Z,36.20
2017-08-27T03:45:08.835Z,59.93
2017-08-27T03:47:36.964Z,39.50
2017-08-27T03:50:05.051Z,40.17
2017-08-27T03:52:33.155Z,42.00
2017-08-27T03:55:01.276Z,44.97
2017-08-27T03:57:29.375Z,34.00
2017-08-27T03:59:57.475Z,37.77
2017-08-27T04:02:25.595Z,38.20
2017-08-27T04:04:53.688Z,43.97
2017-08-27T04:07:21.783Z,42.60
2017-08-27T04:09:50.779Z,38.73
2017-08-27T04:12:18.896Z,41.57
2017-08-27T04:14:47.019Z,43.17
2017-08-27T04:17:15.108Z,42.97
2017-08-27T04:19:44.128Z,44.47
2017-08-27T04:22:12.203Z,39.90
2017-08-27T04:24:40.312Z,41.67
2017-08-27T04:27:08.427Z,59.70
2017-08-27T04:29:37.435Z,42.20
2017-08-27T04:32:05.518Z,45.77
2017-08-27T04:34:33.636Z,45.40
2017-08-27T04:37:01.723Z,47.27
2017-08-27T04:39:31.736Z,58.63
2017-08-27T04:41:59.851Z,55.40
2017-08-27T04:44:27.935Z,58.27
2017-08-27T04:46:56.046Z,45.90
2017-08-27T04:49:24.147Z,63.00
2017-08-27T04:51:52.241Z,63.47
2017-08-27T04:54:20.315Z,67.53
2017-08-27T04:56:48.439Z,64.30
2017-08-27T04:59:16.508Z,61.83
2017-08-27T05:01:45.515Z,59.43
2017-08-27T05:04:13.616Z,72.40
2017-08-27T05:06:41.748Z,62.90
2017-08-27T05:09:10.742Z,70.67
2017-08-27T05:11:38.867Z,65.27
2017-08-27T05:14:06.967Z,74.30
2017-08-27T05:16:35.064Z,63.73
2017-08-27T05:19:03.180Z,70.77
2017-08-27T05:21:31.270Z,71.00
2017-08-27T05:24:00.284Z,76.93
2017-08-27T05:26:28.368Z,72.40
2017-08-27T05:28:56.471Z,75.70
2017-08-27T05:31:24.572Z,69.17
2017-08-27T05:33:52.660Z,69.47
2017-08-27T05:36:20.783Z,67.00
2017-08-27T05:38:48.863Z,71.60
2017-08-27T05:41:16.988Z,71.90
2017-08-27T05:43:45.074Z,75.53
2017-08-27T05:46:14.092Z,82.77
2017-08-27T05:48:42.184Z,76.53
2017-08-27T05:51:10.290Z,69.80
2017-08-27T05:53:38.387Z,81.43
2017-08-27T05:56:06.470Z,80.33
2017-08-27T05:58:34.578Z,84.27
2017-08-27T06:01:02.676Z,79.20
2017-08-27T06:03:30.782Z,77.00
2017-08-27T06:05:58.883Z,86.43
2017-08-27T06:08:26.967Z,81.47
2017-08-27T06:10:55.981Z,83.80
2017-08-27T06:13:24.059Z,78.40
2017-08-27T06:15:52.143Z,71.70
2017-08-27T06:18:20.261Z,82.73
2017-08-27T06:20:49.279Z,78.13
2017-08-27T06:23:17.368Z,76.20
2017-08-27T06:25:45.454Z,68.03
2017-08-27T06:28:13.555Z,67.00
2017-08-27T06:30:41.707Z,75.80
2017-08-27T06:33:10.715Z,70.90
2017-08-27T06:35:38.818Z,65.80
2017-08-27T06:38:06.913Z,68.30
2017-08-27T06:40:35.004Z,63.67
2017-08-27T06:43:04.019Z,57.13
2017-08-27T06:45:32.124Z,65.70
2017-08-27T06:48:00.220Z,60.57
2017-08-27T06:50:28.316Z,63.07
2017-08-27T06:52:57.368Z,59.87
2017-08-27T06:55:25.454Z,57.30
2017-08-27T06:57:53.639Z,60.37
2017-08-27T07:00:21.728Z,55.80
2017-08-27T07:02:49.824Z,55.50
2017-08-27T07:05:18.839Z,46.73
2017-08-27T07:07:46.923Z,49.60
2017-08-27T07:10:15.943Z,57.13
2017-08-27T07:12:44.020Z,49.50
2017-08-27T07:15:12.131Z,44.30
2017-08-27T07:17:40.205Z,44.50
2017-08-27T07:20:08.318Z,41.67
2017-08-27T07:22:36.414Z,40.57
2017-08-27T07:25:05.424Z,46.83
2017-08-27T07:27:33.518Z,47.40
2017-08-27T07:30:01.640Z,38.83
2017-08-27T07:32:29.743Z,39.27
2017-08-27T07:34:58.756Z,38.37
2017-08-27T07:37:26.879Z,40.47
2017-08-27T07:39:54.962Z,39.47
2017-08-27T07:42:23.071Z,37.90
2017-08-27T07:44:51.199Z,38.43
2017-08-27T07:47:19.287Z,42.93
2017-08-27T07:49:47.395Z,37.07
2017-08-27T07:52:15.504Z,34.47
2017-08-27T07:54:43.589Z,29.87
2017-08-27T07:57:11.693Z,30.93
2017-08-27T07:59:39.787Z,36.77
2017-08-27T08:02:07.883Z,31.50
2017-08-27T08:04:35.968Z,31.00
2017-08-27T08:07:04.059Z,35.20
2017-08-27T08:09:32.173Z,28.40
2017-08-27T08:12:00.304Z,31.47
2017-08-27T08:14:28.401Z,30.03
2017-08-27T08:16:56.487Z,29.33
2017-08-27T08:19:24.567Z,30.47
2017-08-27T08:21:52.672Z,27.43
2017-08-27T08:24:22.592Z,27.83
2017-08-27T08:26:50.687Z,27.73
2017-08-27T08:29:18.805Z,26.33
2017-08-27T08:31:46.903Z,23.97
2017-08-27T08:34:15.007Z,25.70
2017-08-27T08:36:43.092Z,30.63
2017-08-27T08:39:11.199Z,26.93
2017-08-27T08:41:39.296Z,26.13
2017-08-27T08:44:07.391Z,24.90
2017-08-27T08:46:35.491Z,24.20
2017-08-27T08:49:03.596Z,27.43
2017-08-27T08:51:32.547Z,43.00
2017-08-27T08:54:00.654Z,25.43
2017-08-27T08:56:29.642Z,23.90
2017-08-27T08:58:58.690Z,28.53
2017-08-27T09:01:27.112Z,25.50
2017-08-27T09:03:55.228Z,30.90
2017-08-27T09:06:23.307Z,31.23
2017-08-27T09:08:51.412Z,29.27
2017-08-27T09:11:19.511Z,29.10
2017-08-27T09:13:47.596Z,25.63
2017-08-27T09:16:15.715Z,29.43
2017-08-27T09:18:43.820Z,28.37
2017-08-27T09:21:11.928Z,28.90
2017-08-27T09:23:40.952Z,20.80
2017-08-27T09:26:09.367Z,22.17
2017-08-27T09:28:37.496Z,20.07
2017-08-27T09:31:05.628Z,23.93
2017-08-27T09:33:33.748Z,19.60
2017-08-27T09:36:01.868Z,21.13
2017-08-27T09:38:29.994Z,24.27
2017-08-27T09:40:58.252Z,27.90
2017-08-27T09:43:26.360Z,43.23
2017-08-27T09:45:54.507Z,24.40
2017-08-27T09:48:22.636Z,19.07
2017-08-27T09:50:50.786Z,16.90
2017-08-27T09:53:18.920Z,14.27
2017-08-27T09:55:46.996Z,18.33
2017-08-27T09:58:15.124Z,21.97
2017-08-27T10:00:47.123Z,29.07
2017-08-27T10:03:15.216Z,29.57
2017-08-27T10:05:43.294Z,55.60
2017-08-27T10:08:12.320Z,11.17
2017-08-27T10:10:40.417Z,12.30
2017-08-27T10:13:08.587Z,17.27
2017-08-27T10:15:36.697Z,12.23
2017-08-27T10:18:05.029Z,19.33
2017-08-27T10:20:33.739Z,12.77
2017-08-27T10:23:01.825Z,11.47
2017-08-27T10:25:29.928Z,14.50
2017-08-27T10:27:58.013Z,7.63
2017-08-27T10:30:26.117Z,9.40
2017-08-27T10:32:54.204Z,11.07
2017-08-27T10:35:24.209Z,10.17
2017-08-27T10:37:53.124Z,10.37
2017-08-27T10:40:21.220Z,11.80
2017-08-27T10:42:49.342Z,12.97
2017-08-27T10:45:17.412Z,8.87
2017-08-27T10:47:46.424Z,11.20
2017-08-27T10:50:14.511Z,8.47
2017-08-27T10:52:42.597Z,11.30
2017-08-27T10:55:10.814Z,9.60
2017-08-27T10:57:38.928Z,9.10
2017-08-27T11:00:07.035Z,10.97
2017-08-27T11:02:35.119Z,10.00
2017-08-27T11:05:03.926Z,7.60
2017-08-27T11:07:32.032Z,10.47
2017-08-27T11:10:00.140Z,14.50
2017-08-27T11:12:28.347Z,15.67
2017-08-27T11:14:56.462Z,16.00
2017-08-27T11:17:27.608Z,10.93
2017-08-27T11:19:56.425Z,11.83
2017-08-27T11:22:25.431Z,7.80
2017-08-27T11:24:53.581Z,6.87
2017-08-27T11:27:22.635Z,9.77
2017-08-27T11:29:50.733Z,10.57
2017-08-27T11:32:20.761Z,10.90
2017-08-27T11:34:48.873Z,8.60
2017-08-27T11:37:16.968Z,9.10
2017-08-27T11:39:46.587Z,8.43
2017-08-27T11:42:14.700Z,6.60
2017-08-27T11:44:44.788Z,5.13
2017-08-27T11:47:12.886Z,22.13
2017-08-27T11:49:41.886Z,7.60
2017-08-27T11:52:10.063Z,22.50
2017-08-27T11:54:38.175Z,8.90
2017-08-27T11:57:06.271Z,7.93
2017-08-27T11:59:34.368Z,8.60
2017-08-27T12:02:02.455Z,7.03
2017-08-27T12:04:30.793Z,8.67
2017-08-27T12:06:59.154Z,12.80
2017-08-27T12:09:27.244Z,7.60
2017-08-27T12:11:55.374Z,6.50
2017-08-27T12:14:23.474Z,5.73
2017-08-27T12:16:51.612Z,8.67
2017-08-27T12:19:19.702Z,7.23
2017-08-27T12:21:47.814Z,6.60
2017-08-27T12:24:15.884Z,6.30
2017-08-27T12:26:43.968Z,5.30
2017-08-27T12:29:12.064Z,4.70
2017-08-27T12:31:40.164Z,4.03
2017-08-27T12:34:09.176Z,8.40
2017-08-27T12:36:38.192Z,9.37
2017-08-27T12:39:06.304Z,10.70
2017-08-27T12:41:34.467Z,4.90
2017-08-27T12:44:02.562Z,5.43
2017-08-27T12:46:30.669Z,6.80
2017-08-27T12:48:58.813Z,5.13
2017-08-27T12:51:26.896Z,8.43
2017-08-27T12:53:54.975Z,5.60
2017-08-27T12:56:25.008Z,6.80
2017-08-27T12:58:53.639Z,7.40
2017-08-27T13:01:21.764Z,7.13
2017-08-27T13:03:49.850Z,5.83
2017-08-27T13:06:17.953Z,7.53
2017-08-27T13:08:48.434Z,12.70
2017-08-27T13:11:16.517Z,12.47
2017-08-27T13:13:44.866Z,6.87
2017-08-27T13:16:12.959Z,4.63
2017-08-27T13:18:41.932Z,5.80
2017-08-27T13:21:11.979Z,8.00
2017-08-27T13:23:40.091Z,5.50
2017-08-27T13:26:08.269Z,5.07
2017-08-27T13:28:36.385Z,10.37
2017-08-27T13:31:04.499Z,5.47
2017-08-27T13:33:36.484Z,8.57
2017-08-27T13:36:04.601Z,5.63
2017-08-27T13:38:32.698Z,5.70
2017-08-27T13:41:01.647Z,5.70
2017-08-27T13:43:29.758Z,6.87
2017-08-27T13:45:57.848Z,6.50
2017-08-27T13:48:25.952Z,6.87
2017-08-27T13:50:54.067Z,7.40
2017-08-27T13:53:23.108Z,6.43
2017-08-27T13:55:51.287Z,4.50
2017-08-27T13:58:20.247Z,7.03
2017-08-27T14:00:49.304Z,4.10
2017-08-27T14:03:17.423Z,5.93
2017-08-27T14:05:45.543Z,6.13
2017-08-27T14:08:15.555Z,5.23
2017-08-27T14:10:44.568Z,6.73
2017-08-27T14:13:13.562Z,5.97
2017-08-27T14:15:42.621Z,5.60
2017-08-27T14:18:10.732Z,5.23
2017-08-27T14:20:38.832Z,4.77
2017-08-27T14:23:06.932Z,6.70
2017-08-27T14:25:35.048Z,7.33
2017-08-27T14:28:03.326Z,13.13
2017-08-27T14:30:31.444Z,6.33
2017-08-27T14:33:03.288Z,8.27
2017-08-27T14:35:31.414Z,5.17
2017-08-27T14:37:59.509Z,5.07
2017-08-27T14:40:35.993Z,5.40
2017-08-27T14:43:04.074Z,6.40
2017-08-27T14:45:32.167Z,4.37
2017-08-27T14:48:00.276Z,5.90
2017-08-27T14:50:29.615Z,4.77
2017-08-27T14:52:57.691Z,4.87
2017-08-27T14:55:25.780Z,4.40
2017-08-27T14:57:53.891Z,6.03
2017-08-27T15:00:21.969Z,6.93
2017-08-27T15:02:52.198Z,14.23
2017-08-27T15:05:20.340Z,7.47
2017-08-27T15:07:49.375Z,4.90
2017-08-27T15:10:17.471Z,13.27
2017-08-27T15:12:45.562Z,8.33
2017-08-27T15:15:13.638Z,6.50
2017-08-27T15:17:41.720Z,10.13
2017-08-27T15:20:10.739Z,14.90
2017-08-27T15:22:38.840Z,17.10
2017-08-27T15:25:06.948Z,10.87
2017-08-27T15:27:35.094Z,7.73
2017-08-27T15:30:03.187Z,11.83
2017-08-27T15:32:31.360Z,7.97
2017-08-27T15:35:01.384Z,39.03
2017-08-27T15:37:29.484Z,19.50
2017-08-27T15:39:57.595Z,9.10
2017-08-27T15:42:25.687Z,6.60
2017-08-27T15:44:54.558Z,11.20
2017-08-27T15:47:22.651Z,9.23
2017-08-27T15:49:50.747Z,6.60
2017-08-27T15:52:18.840Z,6.10
2017-08-27T15:54:46.923Z,11.20
2017-08-27T15:57:15.008Z,9.53
2017-08-27T15:59:43.107Z,6.90
2017-08-27T16:02:12.036Z,11.60
2017-08-27T16:04:40.127Z,10.77
2017-08-27T16:07:08.212Z,7.13
2017-08-27T16:09:36.331Z,6.10
2017-08-27T16:12:04.437Z,4.50
2017-08-27T16:14:32.556Z,6.43
2017-08-27T16:17:00.639Z,9.10
2017-08-27T16:19:28.719Z,9.83
2017-08-27T16:21:56.873Z,138.13
2017-08-27T16:24:24.992Z,8.33
2017-08-27T16:26:53.141Z,6.13
2017-08-27T16:29:21.208Z,6.00
2017-08-27T16:31:49.314Z,5.30
2017-08-27T16:34:17.430Z,6.87
2017-08-27T16:36:48.696Z,5.97
2017-08-27T16:39:16.827Z,7.07
2017-08-27T16:41:44.921Z,7.47
2017-08-27T16:44:13.043Z,9.53
2017-08-27T16:46:41.148Z,9.50
2017-08-27T16:49:09.247Z,8.57
2017-08-27T16:51:37.343Z,11.67
2017-08-27T16:54:05.439Z,5.00
2017-08-27T16:56:33.532Z,10.33
2017-08-27T16:59:01.635Z,72.03
2017-08-27T17:01:29.753Z,5.53
2017-08-27T17:03:57.856Z,5.40
2017-08-27T17:06:25.948Z,13.47
2017-08-27T17:08:54.050Z,7.17
2017-08-27T17:11:22.143Z,6.03
2017-08-27T17:13:50.253Z,8.90
2017-08-27T17:16:18.342Z,8.60
2017-08-27T17:18:47.348Z,12.07
2017-08-27T17:21:15.444Z,5.80
2017-08-27T17:23:43.527Z,11.50
2017-08-27T17:26:11.636Z,10.50
2017-08-27T17:28:39.739Z,26.87
2017-08-27T17:31:07.843Z,8.80
2017-08-27T17:33:35.952Z,6.53
2017-08-27T17:36:04.792Z,8.53
2017-08-27T17:38:32.899Z,8.23
2017-08-27T17:41:00.995Z,14.40
2017-08-27T17:43:29.092Z,9.13
2017-08-27T17:45:57.194Z,19.53
2017-08-27T17:48:25.290Z,9.73
2017-08-27T17:50:53.369Z,12.57
2017-08-27T17:53:22.271Z,33.83
2017-08-27T17:55:51.115Z,17.27
2017-08-27T17:58:19.219Z,11.60
2017-08-27T18:00:47.347Z,13.17
2017-08-27T18:03:15.467Z,12.30
2017-08-27T18:05:43.617Z,8.50
2017-08-27T18:08:12.279Z,12.80
2017-08-27T18:10:40.428Z,25.57
2017-08-27T18:13:08.560Z,24.13
2017-08-27T18:15:38.042Z,17.13
2017-08-27T18:18:06.176Z,14.70
2017-08-27T18:20:34.283Z,7.23
2017-08-27T18:23:02.470Z,5.90
2017-08-27T18:25:30.561Z,9.07
2017-08-27T18:27:58.678Z,10.80
2017-08-27T18:30:26.789Z,8.97
2017-08-27T18:32:54.891Z,14.27
2017-08-27T18:35:24.010Z,11.87
2017-08-27T18:37:52.108Z,6.23
2017-08-27T18:40:20.216Z,7.17
2017-08-27T18:42:48.332Z,10.40
2017-08-27T18:45:16.623Z,19.97
2017-08-27T18:47:44.752Z,6.33
2017-08-27T18:50:12.835Z,29.20
2017-08-27T18:52:40.983Z,61.50
2017-08-27T18:55:09.109Z,49.00
2017-08-27T18:57:38.979Z,11.50
2017-08-27T19:00:07.092Z,13.70
2017-08-27T19:02:36.968Z,8.67
2017-08-27T19:05:05.107Z,5.90
2017-08-27T19:07:33.256Z,6.40
2017-08-27T19:10:01.396Z,8.67
2017-08-27T19:12:29.535Z,5.93
2017-08-27T19:14:58.364Z,6.10
2017-08-27T19:17:26.498Z,5.50
2017-08-27T19:19:54.591Z,7.27
2017-08-27T19:22:22.732Z,4.70
2017-08-27T19:24:50.836Z,8.47
2017-08-27T19:27:18.954Z,9.87
2017-08-27T19:29:47.075Z,9.40
2017-08-27T19:32:15.177Z,5.63
2017-08-27T19:34:43.279Z,18.10
2017-08-27T19:37:11.388Z,18.00
2017-08-27T19:39:39.561Z,32.90
2017-08-27T19:42:07.645Z,10.90
2017-08-27T19:44:35.749Z,8.67
2017-08-27T19:47:03.934Z,8.30
2017-08-27T19:49:32.064Z,6.07
2017-08-27T19:52:00.179Z,5.97
2017-08-27T19:54:28.308Z,6.87
2017-08-27T19:56:57.664Z,12.70
2017-08-27T19:59:26.055Z,15.93
2017-08-27T20:01:54.168Z,21.90
2017-08-27T20:04:22.273Z,9.40
2017-08-27T20:06:50.396Z,6.73
2017-08-27T20:09:18.528Z,19.27
2017-08-27T20:11:48.691Z,6.10
2017-08-27T20:14:16.846Z,7.80
2017-08-27T20:16:45.039Z,6.60
2017-08-27T20:19:13.126Z,8.77
2017-08-27T20:21:41.269Z,7.30
2017-08-27T20:24:09.372Z,10.70
2017-08-27T20:26:37.508Z,6.73
2017-08-27T20:29:05.941Z,11.53
2017-08-27T20:31:35.952Z,7.70
2017-08-27T20:34:04.057Z,5.40
2017-08-27T20:36:32.165Z,5.70
2017-08-27T20:39:01.189Z,8.80
2017-08-27T20:41:29.305Z,8.23
2017-08-27T20:43:57.431Z,6.77
2017-08-27T20:46:25.528Z,6.87
2017-08-27T20:48:54.608Z,5.80
2017-08-27T20:51:23.451Z,8.57
2017-08-27T20:53:51.609Z,11.70
2017-08-27T20:56:19.732Z,27.87
2017-08-27T20:58:47.817Z,20.10
2017-08-27T21:01:15.921Z,9.40
2017-08-27T21:03:44.016Z,12.87
2017-08-27T21:06:12.135Z,6.60
2017-08-27T21:08:40.267Z,9.10
2017-08-27T21:11:08.399Z,7.30
2017-08-27T21:13:36.503Z,5.63
2017-08-27T21:16:04.604Z,4.60
2017-08-27T21:18:33.636Z,5.80
2017-08-27T21:21:01.727Z,7.00
2017-08-27T21:23:29.818Z,7.10
2017-08-27T21:25:58.032Z,11.97
2017-08-27T21:28:26.153Z,10.20
2017-08-27T21:30:55.459Z,6.93
2017-08-27T21:33:23.568Z,23.30
2017-08-27T21:35:51.694Z,11.53
2017-08-27T21:38:20.720Z,10.03
2017-08-27T21:40:48.833Z,13.93
2017-08-27T21:43:17.283Z,6.60
2017-08-27T21:45:47.298Z,8.70
2017-08-27T21:48:15.428Z,4.57
2017-08-27T21:50:43.532Z,7.20
2017-08-27T21:53:11.627Z,7.40
2017-08-27T21:55:39.720Z,8.03
2017-08-27T21:58:07.865Z,8.40
2017-08-27T22:00:36.869Z,7.97
2017-08-27T22:03:08.325Z,5.70
2017-08-27T22:05:37.376Z,4.73
2017-08-27T22:08:05.493Z,5.83
2017-08-27T22:10:33.601Z,7.83
2017-08-27T22:13:02.600Z,9.90
2017-08-27T22:15:30.703Z,8.10
2017-08-27T22:17:58.793Z,5.00
2017-08-27T22:20:27.343Z,7.93
2017-08-27T22:22:56.355Z,5.63
2017-08-27T22:25:24.447Z,8.20
2017-08-27T22:27:52.588Z,6.87
2017-08-27T22:30:20.695Z,8.73
2017-08-27T22:32:48.799Z,6.70
2017-08-27T22:35:16.886Z,7.77
2017-08-27T22:37:45.916Z,9.47
2017-08-27T22:40:13.996Z,9.93
2017-08-27T22:42:42.100Z,5.90
2017-08-27T22:45:10.195Z,5.80
2017-08-27T22:47:38.284Z,8.13
2017-08-27T22:50:06.396Z,11.57
2017-08-27T22:52:34.493Z,7.90
2017-08-27T22:55:02.584Z,6.50
2017-08-27T22:57:30.708Z,6.97
2017-08-27T22:59:58.786Z,7.87
2017-08-27T23:02:27.767Z,9.40
2017-08-27T23:04:55.843Z,8.00
2017-08-27T23:07:23.952Z,11.93
2017-08-27T23:09:52.044Z,8.90
2017-08-27T23:12:20.147Z,11.13
2017-08-27T23:14:48.263Z,12.40
2017-08-27T23:17:16.366Z,11.03
2017-08-27T23:19:45.380Z,12.10
2017-08-27T23:22:13.471Z,11.40
2017-08-27T23:24:41.600Z,9.43
2017-08-27T23:27:09.703Z,19.33
2017-08-27T23:29:37.888Z,10.30
2017-08-27T23:32:05.963Z,9.70
2017-08-27T23:34:34.059Z,11.17
2017-08-27T23:37:02.228Z,12.60
2017-08-27T23:39:30.312Z,13.00
2017-08-27T23:41:58.402Z,6.87
2017-08-27T23:44:26.515Z,14.07
2017-08-27T23:46:54.630Z,9.13
2017-08-27T23:49:22.733Z,10.60
2017-08-27T23:51:50.858Z,11.87
2017-08-27T23:54:18.971Z,11.20
2017-08-27T23:56:47.097Z,6.63
2017-08-27T23:59:16.011Z,12.90
